sensor_id;sensor_type;location;lat;lon;timestamp;pressure;altitude;pressure_sealevel;temperature;humidity
58662;BME280;44432;49.786;22.760;2023-04-03T00:01:43;99266.17;;;3.49;82.43
58662;BME280;44432;49.786;22.760;2023-04-03T00:04:14;99266.77;;;3.44;82.42
58662;BME280;44432;49.786;22.760;2023-04-03T00:06:45;99265.13;;;3.40;82.71
58662;BME280;44432;49.786;22.760;2023-04-03T00:09:15;99265.88;;;3.38;83.03
58662;BME280;44432;49.786;22.760;2023-04-03T00:11:46;99273.48;;;3.35;82.91
58662;BME280;44432;49.786;22.760;2023-04-03T00:14:17;99271.73;;;3.34;83.16
58662;BME280;44432;49.786;22.760;2023-04-03T00:16:48;99267.27;;;3.30;83.06
58662;BME280;44432;49.786;22.760;2023-04-03T00:19:18;99266.48;;;3.31;83.32
58662;BME280;44432;49.786;22.760;2023-04-03T00:21:49;99268.86;;;3.28;83.15
58662;BME280;44432;49.786;22.760;2023-04-03T00:24:20;99271.60;;;3.25;83.48
58662;BME280;44432;49.786;22.760;2023-04-03T00:26:51;99270.08;;;3.22;83.68
58662;BME280;44432;49.786;22.760;2023-04-03T00:29:22;99273.05;;;3.22;83.44
58662;BME280;44432;49.786;22.760;2023-04-03T00:31:53;99274.94;;;3.19;83.27
58662;BME280;44432;49.786;22.760;2023-04-03T00:34:24;99272.48;;;3.14;83.45
58662;BME280;44432;49.786;22.760;2023-04-03T00:36:54;99275.91;;;3.11;83.57
58662;BME280;44432;49.786;22.760;2023-04-03T00:39:25;99277.13;;;3.12;83.68
58662;BME280;44432;49.786;22.760;2023-04-03T00:41:56;99279.45;;;3.05;83.56
58662;BME280;44432;49.786;22.760;2023-04-03T00:47:30;99281.67;;;2.99;84.22
58662;BME280;44432;49.786;22.760;2023-04-03T00:50:01;99281.52;;;2.98;83.97
58662;BME280;44432;49.786;22.760;2023-04-03T00:52:33;99280.56;;;2.98;83.96
58662;BME280;44432;49.786;22.760;2023-04-03T00:55:07;99276.95;;;2.98;83.96
58662;BME280;44432;49.786;22.760;2023-04-03T00:57:39;99280.54;;;2.96;84.13
58662;BME280;44432;49.786;22.760;2023-04-03T01:00:14;99278.41;;;2.93;83.85
58662;BME280;44432;49.786;22.760;2023-04-03T01:02:45;99277.20;;;2.90;83.95
58662;BME280;44432;49.786;22.760;2023-04-03T01:05:17;99277.04;;;2.88;84.30
58662;BME280;44432;49.786;22.760;2023-04-03T01:07:48;99275.34;;;2.84;84.05
58662;BME280;44432;49.786;22.760;2023-04-03T01:10:21;99278.55;;;2.84;84.35
58662;BME280;44432;49.786;22.760;2023-04-03T01:12:52;99276.26;;;2.82;84.04
58662;BME280;44432;49.786;22.760;2023-04-03T01:15:24;99280.14;;;2.82;83.99
58662;BME280;44432;49.786;22.760;2023-04-03T01:17:56;99278.94;;;2.79;84.20
58662;BME280;44432;49.786;22.760;2023-04-03T01:23:55;99285.95;;;2.80;84.23
58662;BME280;44432;49.786;22.760;2023-04-03T01:26:29;99289.39;;;2.78;84.20
58662;BME280;44432;49.786;22.760;2023-04-03T01:29:01;99290.77;;;2.77;83.88
58662;BME280;44432;49.786;22.760;2023-04-03T01:31:42;99290.86;;;2.74;83.94
58662;BME280;44432;49.786;22.760;2023-04-03T01:34:14;99292.52;;;2.73;84.23
58662;BME280;44432;49.786;22.760;2023-04-03T01:36:45;99296.66;;;2.75;84.08
58662;BME280;44432;49.786;22.760;2023-04-03T01:39:15;99294.51;;;2.76;84.07
58662;BME280;44432;49.786;22.760;2023-04-03T01:41:46;99299.59;;;2.79;84.00
58662;BME280;44432;49.786;22.760;2023-04-03T01:44:18;99304.42;;;2.79;83.83
58662;BME280;44432;49.786;22.760;2023-04-03T01:46:49;99306.02;;;2.77;83.78
58662;BME280;44432;49.786;22.760;2023-04-03T01:49:19;99304.70;;;2.75;83.84
58662;BME280;44432;49.786;22.760;2023-04-03T01:51:50;99307.83;;;2.73;83.44
58662;BME280;44432;49.786;22.760;2023-04-03T01:54:21;99308.48;;;2.70;83.68
58662;BME280;44432;49.786;22.760;2023-04-03T01:56:51;99304.64;;;2.67;83.52
58662;BME280;44432;49.786;22.760;2023-04-03T01:59:22;99306.55;;;2.67;83.29
58662;BME280;44432;49.786;22.760;2023-04-03T02:01:53;99308.21;;;2.66;83.49
58662;BME280;44432;49.786;22.760;2023-04-03T02:04:24;99307.77;;;2.67;83.51
58662;BME280;44432;49.786;22.760;2023-04-03T02:06:55;99309.65;;;2.69;83.42
58662;BME280;44432;49.786;22.760;2023-04-03T02:09:25;99312.42;;;2.71;83.41
58662;BME280;44432;49.786;22.760;2023-04-03T02:11:56;99318.48;;;2.71;83.29
58662;BME280;44432;49.786;22.760;2023-04-03T02:14:27;99326.80;;;2.70;83.27
58662;BME280;44432;49.786;22.760;2023-04-03T02:16:58;99330.44;;;2.65;82.80
58662;BME280;44432;49.786;22.760;2023-04-03T02:19:30;99331.17;;;2.63;83.18
58662;BME280;44432;49.786;22.760;2023-04-03T02:22:01;99332.15;;;2.62;82.95
58662;BME280;44432;49.786;22.760;2023-04-03T02:24:32;99333.39;;;2.61;83.27
58662;BME280;44432;49.786;22.760;2023-04-03T02:27:02;99333.09;;;2.58;82.99
58662;BME280;44432;49.786;22.760;2023-04-03T02:29:33;99335.17;;;2.54;82.84
58662;BME280;44432;49.786;22.760;2023-04-03T02:32:04;99335.39;;;2.52;82.76
58662;BME280;44432;49.786;22.760;2023-04-03T02:34:35;99336.33;;;2.51;82.91
58662;BME280;44432;49.786;22.760;2023-04-03T02:37:06;99338.39;;;2.50;82.62
58662;BME280;44432;49.786;22.760;2023-04-03T02:39:37;99340.69;;;2.47;82.47
58662;BME280;44432;49.786;22.760;2023-04-03T02:42:08;99341.08;;;2.46;82.72
58662;BME280;44432;49.786;22.760;2023-04-03T02:44:39;99343.13;;;2.47;82.38
58662;BME280;44432;49.786;22.760;2023-04-03T02:47:09;99341.36;;;2.45;82.72
58662;BME280;44432;49.786;22.760;2023-04-03T02:49:40;99342.20;;;2.44;82.57
58662;BME280;44432;49.786;22.760;2023-04-03T02:52:13;99346.66;;;2.39;82.75
58662;BME280;44432;49.786;22.760;2023-04-03T02:54:44;99351.56;;;2.36;82.30
58662;BME280;44432;49.786;22.760;2023-04-03T02:57:14;99351.39;;;2.32;82.63
58662;BME280;44432;49.786;22.760;2023-04-03T02:59:45;99354.17;;;2.28;82.55
58662;BME280;44432;49.786;22.760;2023-04-03T03:02:16;99354.95;;;2.26;82.63
58662;BME280;44432;49.786;22.760;2023-04-03T03:04:46;99362.39;;;2.21;82.26
58662;BME280;44432;49.786;22.760;2023-04-03T03:07:17;99358.07;;;2.16;82.36
58662;BME280;44432;49.786;22.760;2023-04-03T03:09:48;99359.32;;;2.12;82.48
58662;BME280;44432;49.786;22.760;2023-04-03T03:12:19;99363.05;;;2.10;82.61
58662;BME280;44432;49.786;22.760;2023-04-03T03:14:51;99367.22;;;2.08;82.57
58662;BME280;44432;49.786;22.760;2023-04-03T03:17:22;99365.41;;;2.08;82.70
58662;BME280;44432;49.786;22.760;2023-04-03T03:19:53;99365.63;;;2.09;82.87
58662;BME280;44432;49.786;22.760;2023-04-03T03:22:24;99371.19;;;2.10;83.01
58662;BME280;44432;49.786;22.760;2023-04-03T03:24:55;99369.43;;;2.09;83.17
58662;BME280;44432;49.786;22.760;2023-04-03T03:27:26;99368.97;;;2.10;83.03
58662;BME280;44432;49.786;22.760;2023-04-03T03:29:56;99370.64;;;2.10;83.24
58662;BME280;44432;49.786;22.760;2023-04-03T03:32:27;99372.23;;;2.10;83.29
58662;BME280;44432;49.786;22.760;2023-04-03T03:34:58;99373.96;;;2.05;82.99
58662;BME280;44432;49.786;22.760;2023-04-03T03:37:29;99371.05;;;2.02;83.00
58662;BME280;44432;49.786;22.760;2023-04-03T03:39:59;99373.39;;;2.01;83.21
58662;BME280;44432;49.786;22.760;2023-04-03T03:42:30;99374.96;;;1.97;82.78
58662;BME280;44432;49.786;22.760;2023-04-03T03:45:01;99374.98;;;1.93;82.82
58662;BME280;44432;49.786;22.760;2023-04-03T03:47:32;99379.36;;;1.91;82.94
58662;BME280;44432;49.786;22.760;2023-04-03T03:50:03;99380.34;;;1.89;83.03
58662;BME280;44432;49.786;22.760;2023-04-03T03:52:34;99383.71;;;1.90;83.40
58662;BME280;44432;49.786;22.760;2023-04-03T03:55:05;99383.47;;;1.92;83.31
58662;BME280;44432;49.786;22.760;2023-04-03T03:57:36;99386.52;;;1.91;82.86
58662;BME280;44432;49.786;22.760;2023-04-03T04:00:09;99387.20;;;1.89;82.86
58662;BME280;44432;49.786;22.760;2023-04-03T04:02:39;99391.06;;;1.89;82.81
58662;BME280;44432;49.786;22.760;2023-04-03T04:05:10;99394.83;;;1.86;82.83
58662;BME280;44432;49.786;22.760;2023-04-03T04:07:40;99396.11;;;1.84;82.80
58662;BME280;44432;49.786;22.760;2023-04-03T04:10:11;99395.67;;;1.81;83.09
58662;BME280;44432;49.786;22.760;2023-04-03T04:12:43;99400.55;;;1.78;82.85
58662;BME280;44432;49.786;22.760;2023-04-03T04:15:13;99403.98;;;1.73;83.12
58662;BME280;44432;49.786;22.760;2023-04-03T04:17:44;99405.75;;;1.71;83.18
58662;BME280;44432;49.786;22.760;2023-04-03T04:20:15;99401.98;;;1.72;83.36
58662;BME280;44432;49.786;22.760;2023-04-03T04:22:46;99402.36;;;1.75;83.52
58662;BME280;44432;49.786;22.760;2023-04-03T04:25:17;99405.59;;;1.76;83.58
58662;BME280;44432;49.786;22.760;2023-04-03T04:27:48;99411.06;;;1.75;83.38
58662;BME280;44432;49.786;22.760;2023-04-03T04:30:19;99413.48;;;1.73;83.37
58662;BME280;44432;49.786;22.760;2023-04-03T04:32:50;99415.70;;;1.74;83.27
58662;BME280;44432;49.786;22.760;2023-04-03T04:35:21;99413.33;;;1.75;83.54
58662;BME280;44432;49.786;22.760;2023-04-03T04:37:51;99416.57;;;1.77;83.44
58662;BME280;44432;49.786;22.760;2023-04-03T04:40:22;99419.08;;;1.75;83.14
58662;BME280;44432;49.786;22.760;2023-04-03T04:42:53;99421.84;;;1.69;82.78
58662;BME280;44432;49.786;22.760;2023-04-03T04:45:24;99422.02;;;1.66;82.51
58662;BME280;44432;49.786;22.760;2023-04-03T04:47:57;99424.21;;;1.59;82.09
58662;BME280;44432;49.786;22.760;2023-04-03T04:50:28;99423.34;;;1.56;82.39
58662;BME280;44432;49.786;22.760;2023-04-03T04:52:59;99425.92;;;1.56;82.56
58662;BME280;44432;49.786;22.760;2023-04-03T04:55:30;99422.83;;;1.56;82.33
58662;BME280;44432;49.786;22.760;2023-04-03T04:58:00;99427.77;;;1.57;82.54
58662;BME280;44432;49.786;22.760;2023-04-03T05:00:31;99427.96;;;1.57;82.19
58662;BME280;44432;49.786;22.760;2023-04-03T05:03:02;99431.75;;;1.53;81.97
58662;BME280;44432;49.786;22.760;2023-04-03T05:05:33;99433.61;;;1.51;81.84
58662;BME280;44432;49.786;22.760;2023-04-03T05:08:05;99441.05;;;1.51;82.19
58662;BME280;44432;49.786;22.760;2023-04-03T05:10:37;99446.65;;;1.50;82.04
58662;BME280;44432;49.786;22.760;2023-04-03T05:13:10;99449.89;;;1.52;82.01
58662;BME280;44432;49.786;22.760;2023-04-03T05:15:41;99448.16;;;1.52;81.66
58662;BME280;44432;49.786;22.760;2023-04-03T05:18:11;99451.27;;;1.54;81.81
58662;BME280;44432;49.786;22.760;2023-04-03T05:20:42;99454.92;;;1.56;81.55
58662;BME280;44432;49.786;22.760;2023-04-03T05:23:13;99457.02;;;1.54;81.28
58662;BME280;44432;49.786;22.760;2023-04-03T05:25:44;99460.99;;;1.51;80.97
58662;BME280;44432;49.786;22.760;2023-04-03T05:28:16;99461.36;;;1.49;81.26
58662;BME280;44432;49.786;22.760;2023-04-03T05:30:54;99458.38;;;1.49;81.40
58662;BME280;44432;49.786;22.760;2023-04-03T05:33:26;99463.21;;;1.54;81.55
58662;BME280;44432;49.786;22.760;2023-04-03T05:36:01;99462.86;;;1.56;81.85
58662;BME280;44432;49.786;22.760;2023-04-03T05:38:33;99459.94;;;1.53;81.37
58662;BME280;44432;49.786;22.760;2023-04-03T05:41:04;99467.80;;;1.52;81.15
58662;BME280;44432;49.786;22.760;2023-04-03T05:43:35;99467.34;;;1.48;81.11
58662;BME280;44432;49.786;22.760;2023-04-03T05:46:10;99466.80;;;1.41;81.03
58662;BME280;44432;49.786;22.760;2023-04-03T05:48:41;99467.29;;;1.38;81.42
58662;BME280;44432;49.786;22.760;2023-04-03T05:51:16;99470.59;;;1.40;81.68
58662;BME280;44432;49.786;22.760;2023-04-03T05:53:48;99470.63;;;1.44;81.69
58662;BME280;44432;49.786;22.760;2023-04-03T05:56:22;99476.52;;;1.52;81.55
58662;BME280;44432;49.786;22.760;2023-04-03T05:58:53;99480.50;;;1.53;81.28
58662;BME280;44432;49.786;22.760;2023-04-03T06:01:24;99483.89;;;1.54;80.63
58662;BME280;44432;49.786;22.760;2023-04-03T06:03:55;99480.87;;;1.48;80.72
58662;BME280;44432;49.786;22.760;2023-04-03T06:06:44;99486.20;;;1.45;80.75
58662;BME280;44432;49.786;22.760;2023-04-03T06:09:16;99487.71;;;1.45;80.92
58662;BME280;44432;49.786;22.760;2023-04-03T06:11:47;99490.09;;;1.46;80.85
58662;BME280;44432;49.786;22.760;2023-04-03T06:14:18;99493.31;;;1.46;80.56
58662;BME280;44432;49.786;22.760;2023-04-03T06:16:49;99493.17;;;1.45;80.28
58662;BME280;44432;49.786;22.760;2023-04-03T06:19:20;99499.33;;;1.44;80.77
58662;BME280;44432;49.786;22.760;2023-04-03T06:21:51;99496.05;;;1.47;80.91
58662;BME280;44432;49.786;22.760;2023-04-03T06:24:21;99494.23;;;1.51;81.17
58662;BME280;44432;49.786;22.760;2023-04-03T06:26:54;99497.71;;;1.62;80.97
58662;BME280;44432;49.786;22.760;2023-04-03T06:29:25;99508.55;;;1.67;80.22
58662;BME280;44432;49.786;22.760;2023-04-03T06:31:56;99508.95;;;1.64;80.22
58662;BME280;44432;49.786;22.760;2023-04-03T06:34:27;99512.84;;;1.65;80.11
58662;BME280;44432;49.786;22.760;2023-04-03T06:36:57;99514.48;;;1.62;80.23
58662;BME280;44432;49.786;22.760;2023-04-03T06:39:28;99520.42;;;1.62;80.00
58662;BME280;44432;49.786;22.760;2023-04-03T06:41:59;99519.32;;;1.59;79.86
58662;BME280;44432;49.786;22.760;2023-04-03T06:44:30;99520.85;;;1.59;80.06
58662;BME280;44432;49.786;22.760;2023-04-03T06:47:01;99523.88;;;1.64;80.17
58662;BME280;44432;49.786;22.760;2023-04-03T06:49:32;99529.02;;;1.68;80.22
58662;BME280;44432;49.786;22.760;2023-04-03T06:52:03;99527.13;;;1.70;79.29
58662;BME280;44432;49.786;22.760;2023-04-03T06:54:35;99526.75;;;1.68;79.29
58662;BME280;44432;49.786;22.760;2023-04-03T06:57:06;99530.11;;;1.70;79.07
58662;BME280;44432;49.786;22.760;2023-04-03T06:59:37;99535.48;;;1.70;79.14
58662;BME280;44432;49.786;22.760;2023-04-03T07:02:10;99535.92;;;1.65;78.84
58662;BME280;44432;49.786;22.760;2023-04-03T07:04:42;99539.58;;;1.69;78.97
58662;BME280;44432;49.786;22.760;2023-04-03T07:07:13;99545.96;;;1.74;78.96
58662;BME280;44432;49.786;22.760;2023-04-03T07:09:44;99553.23;;;1.73;78.01
58662;BME280;44432;49.786;22.760;2023-04-03T07:12:17;99560.90;;;1.67;77.79
58662;BME280;44432;49.786;22.760;2023-04-03T07:14:48;99571.27;;;1.60;77.65
58662;BME280;44432;49.786;22.760;2023-04-03T07:17:18;99566.02;;;1.57;78.29
58662;BME280;44432;49.786;22.760;2023-04-03T07:19:49;99567.23;;;1.59;77.95
58662;BME280;44432;49.786;22.760;2023-04-03T07:22:20;99572.90;;;1.63;78.25
58662;BME280;44432;49.786;22.760;2023-04-03T07:24:51;99571.20;;;1.70;78.38
58662;BME280;44432;49.786;22.760;2023-04-03T07:27:22;99567.86;;;1.74;78.07
58662;BME280;44432;49.786;22.760;2023-04-03T07:29:53;99572.10;;;1.79;78.20
58662;BME280;44432;49.786;22.760;2023-04-03T07:32:25;99567.21;;;1.79;77.93
58662;BME280;44432;49.786;22.760;2023-04-03T07:34:56;99565.61;;;1.81;78.17
58662;BME280;44432;49.786;22.760;2023-04-03T07:37:27;99569.54;;;1.87;78.16
58662;BME280;44432;49.786;22.760;2023-04-03T07:39:57;99573.91;;;1.92;78.29
58662;BME280;44432;49.786;22.760;2023-04-03T07:42:29;99575.84;;;1.93;78.19
58662;BME280;44432;49.786;22.760;2023-04-03T07:45:00;99573.52;;;1.92;77.98
58662;BME280;44432;49.786;22.760;2023-04-03T07:47:31;99579.95;;;1.90;77.88
58662;BME280;44432;49.786;22.760;2023-04-03T07:50:01;99580.27;;;1.90;78.23
58662;BME280;44432;49.786;22.760;2023-04-03T07:52:32;99582.27;;;1.90;78.21
58662;BME280;44432;49.786;22.760;2023-04-03T07:55:04;99585.07;;;1.88;78.19
58662;BME280;44432;49.786;22.760;2023-04-03T07:57:35;99589.33;;;1.90;78.69
58662;BME280;44432;49.786;22.760;2023-04-03T08:00:08;99593.84;;;1.90;78.24
58662;BME280;44432;49.786;22.760;2023-04-03T08:02:41;99598.48;;;1.80;77.88
58662;BME280;44432;49.786;22.760;2023-04-03T08:05:13;99595.83;;;1.70;77.96
58662;BME280;44432;49.786;22.760;2023-04-03T08:07:44;99605.90;;;1.68;78.21
58662;BME280;44432;49.786;22.760;2023-04-03T08:10:16;99608.90;;;1.56;77.55
58662;BME280;44432;49.786;22.760;2023-04-03T08:12:48;99599.11;;;1.45;77.70
58662;BME280;44432;49.786;22.760;2023-04-03T08:15:19;99599.72;;;1.41;78.38
58662;BME280;44432;49.786;22.760;2023-04-03T08:17:51;99607.39;;;1.43;78.27
58662;BME280;44432;49.786;22.760;2023-04-03T08:20:22;99606.09;;;1.46;78.55
58662;BME280;44432;49.786;22.760;2023-04-03T08:22:52;99613.06;;;1.49;78.30
58662;BME280;44432;49.786;22.760;2023-04-03T08:25:23;99612.66;;;1.48;78.66
58662;BME280;44432;49.786;22.760;2023-04-03T08:27:54;99614.23;;;1.46;78.49
58662;BME280;44432;49.786;22.760;2023-04-03T08:30:25;99617.28;;;1.44;78.91
58662;BME280;44432;49.786;22.760;2023-04-03T08:32:56;99621.86;;;1.46;79.27
58662;BME280;44432;49.786;22.760;2023-04-03T08:35:27;99623.70;;;1.51;79.56
58662;BME280;44432;49.786;22.760;2023-04-03T08:37:57;99629.42;;;1.56;79.69
58662;BME280;44432;49.786;22.760;2023-04-03T08:40:28;99634.08;;;1.47;78.83
58662;BME280;44432;49.786;22.760;2023-04-03T08:43:09;99634.64;;;1.40;78.99
58662;BME280;44432;49.786;22.760;2023-04-03T08:45:47;99644.48;;;1.40;79.13
58662;BME280;44432;49.786;22.760;2023-04-03T08:48:21;99647.56;;;1.39;79.14
58662;BME280;44432;49.786;22.760;2023-04-03T08:50:56;99653.28;;;1.33;79.29
58662;BME280;44432;49.786;22.760;2023-04-03T08:53:31;99663.60;;;1.28;79.39
58662;BME280;44432;49.786;22.760;2023-04-03T08:56:07;99662.02;;;1.20;79.56
58662;BME280;44432;49.786;22.760;2023-04-03T08:58:43;99663.13;;;1.10;79.40
58662;BME280;44432;49.786;22.760;2023-04-03T09:01:21;99660.86;;;1.01;79.45
58662;BME280;44432;49.786;22.760;2023-04-03T09:03:54;99661.45;;;0.94;79.77
58662;BME280;44432;49.786;22.760;2023-04-03T09:06:28;99667.34;;;0.92;79.99
58662;BME280;44432;49.786;22.760;2023-04-03T09:09:14;99663.58;;;0.90;79.81
58662;BME280;44432;49.786;22.760;2023-04-03T09:11:51;99662.84;;;0.87;79.30
58662;BME280;44432;49.786;22.760;2023-04-03T09:14:28;99663.48;;;0.86;79.39
58662;BME280;44432;49.786;22.760;2023-04-03T09:17:08;99665.80;;;0.85;78.94
58662;BME280;44432;49.786;22.760;2023-04-03T09:19:47;99661.55;;;0.82;78.79
58662;BME280;44432;49.786;22.760;2023-04-03T09:22:23;99664.06;;;0.89;78.88
58662;BME280;44432;49.786;22.760;2023-04-03T09:25:00;99670.41;;;0.99;78.82
58662;BME280;44432;49.786;22.760;2023-04-03T09:27:32;99671.21;;;1.07;78.68
58662;BME280;44432;49.786;22.760;2023-04-03T09:30:05;99674.65;;;1.09;77.77
58662;BME280;44432;49.786;22.760;2023-04-03T09:32:36;99674.41;;;1.06;77.61
58662;BME280;44432;49.786;22.760;2023-04-03T09:35:19;99680.27;;;1.01;76.87
58662;BME280;44432;49.786;22.760;2023-04-03T09:37:52;99680.20;;;0.94;77.26
58662;BME280;44432;49.786;22.760;2023-04-03T09:40:38;99679.06;;;0.91;77.64
58662;BME280;44432;49.786;22.760;2023-04-03T09:43:27;99685.36;;;0.87;77.79
58662;BME280;44432;49.786;22.760;2023-04-03T09:46:28;99686.70;;;0.87;78.35
58662;BME280;44432;49.786;22.760;2023-04-03T09:49:02;99689.91;;;0.86;77.78
58662;BME280;44432;49.786;22.760;2023-04-03T09:51:33;99697.38;;;0.84;78.01
58662;BME280;44432;49.786;22.760;2023-04-03T09:57:13;99703.37;;;0.85;78.09
58662;BME280;44432;49.786;22.760;2023-04-03T09:59:57;99704.23;;;0.92;77.88
58662;BME280;44432;49.786;22.760;2023-04-03T10:02:38;99705.42;;;0.97;76.92
58662;BME280;44432;49.786;22.760;2023-04-03T10:05:31;99707.52;;;0.94;76.34
58662;BME280;44432;49.786;22.760;2023-04-03T10:08:15;99714.64;;;1.00;76.78
58662;BME280;44432;49.786;22.760;2023-04-03T10:11:07;99716.69;;;1.03;76.70
58662;BME280;44432;49.786;22.760;2023-04-03T10:13:51;99719.18;;;1.00;76.01
58662;BME280;44432;49.786;22.760;2023-04-03T10:16:26;99725.59;;;0.98;76.07
58662;BME280;44432;49.786;22.760;2023-04-03T10:19:05;99726.58;;;0.97;76.30
58662;BME280;44432;49.786;22.760;2023-04-03T10:21:44;99727.88;;;0.90;75.68
58662;BME280;44432;49.786;22.760;2023-04-03T10:24:21;99729.95;;;0.86;75.93
58662;BME280;44432;49.786;22.760;2023-04-03T10:26:58;99732.29;;;0.83;75.85
58662;BME280;44432;49.786;22.760;2023-04-03T10:29:40;99734.59;;;0.83;76.01
58662;BME280;44432;49.786;22.760;2023-04-03T10:32:34;99741.29;;;0.83;76.31
58662;BME280;44432;49.786;22.760;2023-04-03T10:35:14;99740.77;;;0.84;76.15
58662;BME280;44432;49.786;22.760;2023-04-03T10:37:55;99744.90;;;0.86;75.71
58662;BME280;44432;49.786;22.760;2023-04-03T10:40:33;99746.27;;;0.88;75.00
58662;BME280;44432;49.786;22.760;2023-04-03T10:43:12;99744.27;;;0.85;74.90
58662;BME280;44432;49.786;22.760;2023-04-03T10:45:53;99745.58;;;0.88;75.30
58662;BME280;44432;49.786;22.760;2023-04-03T10:48:35;99748.36;;;0.91;75.65
58662;BME280;44432;49.786;22.760;2023-04-03T10:51:18;99759.54;;;0.92;75.01
58662;BME280;44432;49.786;22.760;2023-04-03T10:53:59;99757.27;;;0.89;74.43
58662;BME280;44432;49.786;22.760;2023-04-03T10:56:39;99760.47;;;0.84;74.44
58662;BME280;44432;49.786;22.760;2023-04-03T10:59:21;99765.34;;;0.82;74.65
58662;BME280;44432;49.786;22.760;2023-04-03T11:01:55;99766.83;;;0.75;74.35
58662;BME280;44432;49.786;22.760;2023-04-03T11:04:29;99769.32;;;0.71;74.77
58662;BME280;44432;49.786;22.760;2023-04-03T11:07:04;99771.55;;;0.71;74.73
58662;BME280;44432;49.786;22.760;2023-04-03T11:09:41;99769.58;;;0.72;75.06
58662;BME280;44432;49.786;22.760;2023-04-03T11:12:16;99776.48;;;0.78;75.12
58662;BME280;44432;49.786;22.760;2023-04-03T11:14:49;99778.06;;;0.77;75.12
58662;BME280;44432;49.786;22.760;2023-04-03T11:17:29;99787.04;;;0.80;75.33
58662;BME280;44432;49.786;22.760;2023-04-03T11:20:06;99791.80;;;0.79;74.17
58662;BME280;44432;49.786;22.760;2023-04-03T11:22:43;99788.52;;;0.69;73.83
58662;BME280;44432;49.786;22.760;2023-04-03T11:25:20;99796.23;;;0.62;73.82
58662;BME280;44432;49.786;22.760;2023-04-03T11:27:55;99800.84;;;0.51;73.05
58662;BME280;44432;49.786;22.760;2023-04-03T11:30:30;99797.85;;;0.40;73.72
58662;BME280;44432;49.786;22.760;2023-04-03T11:36:12;99803.19;;;0.32;73.74
58662;BME280;44432;49.786;22.760;2023-04-03T11:38:51;99800.04;;;0.29;73.82
58662;BME280;44432;49.786;22.760;2023-04-03T11:41:29;99809.11;;;0.26;74.28
58662;BME280;44432;49.786;22.760;2023-04-03T11:44:02;99807.77;;;0.24;74.12
58662;BME280;44432;49.786;22.760;2023-04-03T11:49:56;99810.36;;;0.25;74.67
58662;BME280;44432;49.786;22.760;2023-04-03T11:52:59;99814.67;;;0.24;74.85
58662;BME280;44432;49.786;22.760;2023-04-03T11:55:53;99815.69;;;0.22;74.70
58662;BME280;44432;49.786;22.760;2023-04-03T11:58:27;99815.89;;;0.28;75.10
58662;BME280;44432;49.786;22.760;2023-04-03T12:01:03;99816.52;;;0.35;75.22
58662;BME280;44432;49.786;22.760;2023-04-03T12:04:05;99818.92;;;0.37;74.83
58662;BME280;44432;49.786;22.760;2023-04-03T12:10:12;99822.02;;;0.19;74.28
58662;BME280;44432;49.786;22.760;2023-04-03T12:12:57;99824.59;;;0.11;74.54
58662;BME280;44432;49.786;22.760;2023-04-03T12:15:49;99824.73;;;0.08;74.96
58662;BME280;44432;49.786;22.760;2023-04-03T12:21:24;99833.44;;;0.17;75.56
58662;BME280;44432;49.786;22.760;2023-04-03T12:24:27;99829.48;;;0.17;75.34
58662;BME280;44432;49.786;22.760;2023-04-03T12:27:20;99832.88;;;0.22;75.61
58662;BME280;44432;49.786;22.760;2023-04-03T12:29:55;99830.91;;;0.20;75.42
58662;BME280;44432;49.786;22.760;2023-04-03T12:32:40;99834.27;;;0.21;75.67
58662;BME280;44432;49.786;22.760;2023-04-03T12:35:18;99836.58;;;0.25;76.04
58662;BME280;44432;49.786;22.760;2023-04-03T12:38:15;99834.59;;;0.28;75.96
58662;BME280;44432;49.786;22.760;2023-04-03T12:40:58;99838.91;;;0.28;75.88
58662;BME280;44432;49.786;22.760;2023-04-03T12:43:57;99842.20;;;0.26;75.65
58662;BME280;44432;49.786;22.760;2023-04-03T12:46:37;99842.46;;;0.19;75.83
58662;BME280;44432;49.786;22.760;2023-04-03T12:49:24;99845.14;;;0.18;76.20
58662;BME280;44432;49.786;22.760;2023-04-03T12:52:01;99847.66;;;0.21;76.22
58662;BME280;44432;49.786;22.760;2023-04-03T12:54:34;99847.70;;;0.22;76.48
58662;BME280;44432;49.786;22.760;2023-04-03T12:57:16;99847.16;;;0.19;76.25
58662;BME280;44432;49.786;22.760;2023-04-03T12:59:48;99846.34;;;0.18;76.35
58662;BME280;44432;49.786;22.760;2023-04-03T13:02:25;99855.02;;;0.14;76.38
58662;BME280;44432;49.786;22.760;2023-04-03T13:04:58;99858.11;;;0.06;76.15
58662;BME280;44432;49.786;22.760;2023-04-03T13:07:31;99857.95;;;0.00;76.36
58662;BME280;44432;49.786;22.760;2023-04-03T13:10:13;99859.49;;;-0.02;76.66
58662;BME280;44432;49.786;22.760;2023-04-03T13:12:50;99857.96;;;-0.04;76.67
58662;BME280;44432;49.786;22.760;2023-04-03T13:15:25;99856.48;;;-0.03;76.80
58662;BME280;44432;49.786;22.760;2023-04-03T13:17:57;99852.55;;;0.02;77.13
58662;BME280;44432;49.786;22.760;2023-04-03T13:20:30;99851.48;;;0.05;76.64
58662;BME280;44432;49.786;22.760;2023-04-03T13:23:04;99854.18;;;0.02;76.96
58662;BME280;44432;49.786;22.760;2023-04-03T13:25:40;99858.30;;;0.02;76.87
58662;BME280;44432;49.786;22.760;2023-04-03T13:28:15;99860.58;;;0.04;76.85
58662;BME280;44432;49.786;22.760;2023-04-03T13:30:58;99860.22;;;0.06;76.78
58662;BME280;44432;49.786;22.760;2023-04-03T13:33:32;99860.52;;;0.08;76.34
58662;BME280;44432;49.786;22.760;2023-04-03T13:36:10;99864.70;;;0.08;76.25
58662;BME280;44432;49.786;22.760;2023-04-03T13:38:47;99865.84;;;0.07;76.11
58662;BME280;44432;49.786;22.760;2023-04-03T13:41:31;99860.19;;;0.08;76.29
58662;BME280;44432;49.786;22.760;2023-04-03T13:47:01;99864.07;;;0.15;75.84
58662;BME280;44432;49.786;22.760;2023-04-03T13:49:45;99862.69;;;0.17;75.51
58662;BME280;44432;49.786;22.760;2023-04-03T13:52:30;99863.40;;;0.21;75.54
58662;BME280;44432;49.786;22.760;2023-04-03T13:55:18;99865.30;;;0.25;75.80
58662;BME280;44432;49.786;22.760;2023-04-03T13:57:59;99854.85;;;0.29;76.03
58662;BME280;44432;49.786;22.760;2023-04-03T14:00:34;99859.77;;;0.47;76.28
58662;BME280;44432;49.786;22.760;2023-04-03T14:03:14;99853.79;;;0.57;76.00